Airport View

Enter AWOS ICAO identifier for current METAR.

ex. KFNL

KLXT 120453Z AUTO 18011G18KT 10SM CLR 04/M04 A3024 RMK AO2 SLP247 T00441044

12 Dec 2019 05:33

Frequency: 124.175

Phone: 816-347-9807

Other Area AWOS: KMKC - KOJC - KLRY - KGPH

TAF KMKC 112321Z 1200/1224 16009KT P6SM SKC FM120600 19012KT P6SM BKN200 WS020/21050KT FM120900 20015G25KT P6SM BKN150 WS020/21050KT FM121500 20017G28KT P6SM OVC050 FM122000 22012KT P6SM BKN050